sensor_id;sensor_type;location;lat;lon;timestamp;P1;durP1;ratioP1;P2;durP2;ratioP2
20810;SDS011;10566;52.928;10.522;2022-11-24T00:03:42;21.60;;;10.43;;
20810;SDS011;10566;52.928;10.522;2022-11-24T00:06:10;19.67;;;8.80;;
20810;SDS011;10566;52.928;10.522;2022-11-24T00:08:37;19.47;;;10.07;;
20810;SDS011;10566;52.928;10.522;2022-11-24T00:11:13;18.90;;;8.50;;
20810;SDS011;10566;52.928;10.522;2022-11-24T00:13:40;21.57;;;9.37;;
20810;SDS011;10566;52.928;10.522;2022-11-24T00:16:10;20.30;;;9.17;;
20810;SDS011;10566;52.928;10.522;2022-11-24T00:18:36;22.60;;;9.60;;
20810;SDS011;10566;52.928;10.522;2022-11-24T00:21:03;20.63;;;9.17;;
20810;SDS011;10566;52.928;10.522;2022-11-24T00:23:29;19.57;;;8.33;;
20810;SDS011;10566;52.928;10.522;2022-11-24T00:25:55;17.97;;;9.03;;
20810;SDS011;10566;52.928;10.522;2022-11-24T00:28:27;17.03;;;7.80;;
20810;SDS011;10566;52.928;10.522;2022-11-24T00:30:53;16.23;;;8.50;;
20810;SDS011;10566;52.928;10.522;2022-11-24T00:33:19;21.77;;;8.43;;
20810;SDS011;10566;52.928;10.522;2022-11-24T00:35:45;21.70;;;9.13;;
20810;SDS011;10566;52.928;10.522;2022-11-24T00:38:18;19.63;;;8.83;;
20810;SDS011;10566;52.928;10.522;2022-11-24T00:40:44;14.73;;;8.43;;
20810;SDS011;10566;52.928;10.522;2022-11-24T00:43:10;19.37;;;9.27;;
20810;SDS011;10566;52.928;10.522;2022-11-24T00:45:36;18.03;;;8.47;;
20810;SDS011;10566;52.928;10.522;2022-11-24T00:48:02;17.37;;;8.73;;
20810;SDS011;10566;52.928;10.522;2022-11-24T00:50:28;15.57;;;8.40;;
20810;SDS011;10566;52.928;10.522;2022-11-24T00:52:54;16.53;;;9.03;;
20810;SDS011;10566;52.928;10.522;2022-11-24T00:55:20;15.67;;;8.33;;
20810;SDS011;10566;52.928;10.522;2022-11-24T00:57:46;18.80;;;8.50;;
20810;SDS011;10566;52.928;10.522;2022-11-24T01:00:12;18.33;;;8.37;;
20810;SDS011;10566;52.928;10.522;2022-11-24T01:02:38;17.07;;;8.03;;
20810;SDS011;10566;52.928;10.522;2022-11-24T01:05:04;18.53;;;8.73;;
20810;SDS011;10566;52.928;10.522;2022-11-24T01:07:30;21.10;;;9.07;;
20810;SDS011;10566;52.928;10.522;2022-11-24T01:09:56;17.33;;;9.00;;
20810;SDS011;10566;52.928;10.522;2022-11-24T01:12:22;23.37;;;9.03;;
20810;SDS011;10566;52.928;10.522;2022-11-24T01:14:48;17.17;;;8.63;;
20810;SDS011;10566;52.928;10.522;2022-11-24T01:17:14;20.77;;;9.30;;
20810;SDS011;10566;52.928;10.522;2022-11-24T01:19:40;18.10;;;7.87;;
20810;SDS011;10566;52.928;10.522;2022-11-24T01:22:06;19.77;;;8.53;;
20810;SDS011;10566;52.928;10.522;2022-11-24T01:24:32;19.80;;;8.43;;
20810;SDS011;10566;52.928;10.522;2022-11-24T01:26:58;21.77;;;9.17;;
20810;SDS011;10566;52.928;10.522;2022-11-24T01:29:24;16.63;;;8.10;;
20810;SDS011;10566;52.928;10.522;2022-11-24T01:31:50;20.40;;;8.33;;
20810;SDS011;10566;52.928;10.522;2022-11-24T01:34:16;17.50;;;8.80;;
20810;SDS011;10566;52.928;10.522;2022-11-24T01:36:42;20.90;;;8.37;;
20810;SDS011;10566;52.928;10.522;2022-11-24T01:39:08;20.83;;;9.00;;
20810;SDS011;10566;52.928;10.522;2022-11-24T01:41:34;22.00;;;9.43;;
20810;SDS011;10566;52.928;10.522;2022-11-24T01:44:00;21.53;;;9.90;;
20810;SDS011;10566;52.928;10.522;2022-11-24T01:46:42;21.30;;;9.40;;
20810;SDS011;10566;52.928;10.522;2022-11-24T01:49:20;22.83;;;9.87;;
20810;SDS011;10566;52.928;10.522;2022-11-24T01:51:51;22.83;;;9.33;;
20810;SDS011;10566;52.928;10.522;2022-11-24T01:54:21;22.00;;;9.40;;
20810;SDS011;10566;52.928;10.522;2022-11-24T01:56:50;22.00;;;9.73;;
20810;SDS011;10566;52.928;10.522;2022-11-24T01:59:16;28.83;;;10.17;;
20810;SDS011;10566;52.928;10.522;2022-11-24T02:01:44;29.00;;;13.67;;
20810;SDS011;10566;52.928;10.522;2022-11-24T02:04:12;25.63;;;12.53;;
20810;SDS011;10566;52.928;10.522;2022-11-24T02:06:39;26.50;;;11.77;;
20810;SDS011;10566;52.928;10.522;2022-11-24T02:09:09;27.83;;;12.47;;
20810;SDS011;10566;52.928;10.522;2022-11-24T02:11:37;27.73;;;11.80;;
20810;SDS011;10566;52.928;10.522;2022-11-24T02:14:04;28.40;;;11.30;;
20810;SDS011;10566;52.928;10.522;2022-11-24T02:16:30;21.47;;;10.00;;
20810;SDS011;10566;52.928;10.522;2022-11-24T02:18:57;22.10;;;10.33;;
20810;SDS011;10566;52.928;10.522;2022-11-24T02:21:23;23.20;;;10.03;;
20810;SDS011;10566;52.928;10.522;2022-11-24T02:29:09;29.40;;;9.90;;
20810;SDS011;10566;52.928;10.522;2022-11-24T02:31:36;21.63;;;9.50;;
20810;SDS011;10566;52.928;10.522;2022-11-24T02:34:02;22.30;;;9.60;;
20810;SDS011;10566;52.928;10.522;2022-11-24T02:36:28;25.60;;;9.80;;
20810;SDS011;10566;52.928;10.522;2022-11-24T02:38:54;25.87;;;9.30;;
20810;SDS011;10566;52.928;10.522;2022-11-24T02:41:20;18.83;;;9.33;;
20810;SDS011;10566;52.928;10.522;2022-11-24T02:43:51;24.00;;;9.80;;
20810;SDS011;10566;52.928;10.522;2022-11-24T02:46:18;21.37;;;9.13;;
20810;SDS011;10566;52.928;10.522;2022-11-24T02:48:44;20.30;;;8.70;;
20810;SDS011;10566;52.928;10.522;2022-11-24T02:51:11;22.80;;;9.17;;
20810;SDS011;10566;52.928;10.522;2022-11-24T02:53:37;18.50;;;9.03;;
20810;SDS011;10566;52.928;10.522;2022-11-24T02:56:03;21.67;;;8.73;;
20810;SDS011;10566;52.928;10.522;2022-11-24T02:58:29;22.90;;;9.30;;
20810;SDS011;10566;52.928;10.522;2022-11-24T03:00:54;20.97;;;9.03;;
20810;SDS011;10566;52.928;10.522;2022-11-24T03:03:21;26.03;;;9.30;;
20810;SDS011;10566;52.928;10.522;2022-11-24T03:05:47;17.57;;;8.60;;
20810;SDS011;10566;52.928;10.522;2022-11-24T03:08:13;22.40;;;8.93;;
20810;SDS011;10566;52.928;10.522;2022-11-24T03:10:39;20.80;;;9.00;;
20810;SDS011;10566;52.928;10.522;2022-11-24T03:13:05;19.27;;;8.80;;
20810;SDS011;10566;52.928;10.522;2022-11-24T03:15:32;25.10;;;9.33;;
20810;SDS011;10566;52.928;10.522;2022-11-24T03:17:58;21.20;;;9.30;;
20810;SDS011;10566;52.928;10.522;2022-11-24T03:20:24;30.87;;;11.10;;
20810;SDS011;10566;52.928;10.522;2022-11-24T03:22:50;29.93;;;11.57;;
20810;SDS011;10566;52.928;10.522;2022-11-24T03:25:16;31.57;;;10.67;;
20810;SDS011;10566;52.928;10.522;2022-11-24T03:27:42;23.50;;;9.53;;
20810;SDS011;10566;52.928;10.522;2022-11-24T03:30:08;20.33;;;9.80;;
20810;SDS011;10566;52.928;10.522;2022-11-24T03:32:35;19.53;;;9.77;;
20810;SDS011;10566;52.928;10.522;2022-11-24T03:35:01;25.53;;;11.30;;
20810;SDS011;10566;52.928;10.522;2022-11-24T03:37:27;26.47;;;11.00;;
20810;SDS011;10566;52.928;10.522;2022-11-24T03:39:53;22.87;;;11.17;;
20810;SDS011;10566;52.928;10.522;2022-11-24T03:42:19;23.83;;;11.60;;
20810;SDS011;10566;52.928;10.522;2022-11-24T03:44:45;29.00;;;10.80;;
20810;SDS011;10566;52.928;10.522;2022-11-24T03:47:11;25.13;;;10.80;;
20810;SDS011;10566;52.928;10.522;2022-11-24T03:49:37;26.47;;;10.70;;
20810;SDS011;10566;52.928;10.522;2022-11-24T03:52:04;22.50;;;10.63;;
20810;SDS011;10566;52.928;10.522;2022-11-24T03:54:30;22.90;;;11.17;;
20810;SDS011;10566;52.928;10.522;2022-11-24T03:56:56;24.10;;;10.87;;
20810;SDS011;10566;52.928;10.522;2022-11-24T03:59:22;24.37;;;10.20;;
20810;SDS011;10566;52.928;10.522;2022-11-24T04:01:48;21.03;;;10.60;;
20810;SDS011;10566;52.928;10.522;2022-11-24T04:04:13;25.80;;;10.93;;
20810;SDS011;10566;52.928;10.522;2022-11-24T04:06:39;24.40;;;10.47;;
20810;SDS011;10566;52.928;10.522;2022-11-24T04:09:05;24.17;;;11.77;;
20810;SDS011;10566;52.928;10.522;2022-11-24T04:11:31;28.40;;;11.90;;
20810;SDS011;10566;52.928;10.522;2022-11-24T04:14:16;27.83;;;11.90;;
20810;SDS011;10566;52.928;10.522;2022-11-24T04:16:43;24.87;;;11.77;;
20810;SDS011;10566;52.928;10.522;2022-11-24T04:19:09;21.80;;;12.73;;
20810;SDS011;10566;52.928;10.522;2022-11-24T04:21:35;23.50;;;12.20;;
20810;SDS011;10566;52.928;10.522;2022-11-24T04:24:01;32.70;;;13.87;;
20810;SDS011;10566;52.928;10.522;2022-11-24T04:26:27;27.50;;;13.10;;
20810;SDS011;10566;52.928;10.522;2022-11-24T04:28:53;30.97;;;12.73;;
20810;SDS011;10566;52.928;10.522;2022-11-24T04:31:19;28.30;;;12.47;;
20810;SDS011;10566;52.928;10.522;2022-11-24T04:33:45;25.03;;;12.43;;
20810;SDS011;10566;52.928;10.522;2022-11-24T04:36:11;25.60;;;12.20;;
20810;SDS011;10566;52.928;10.522;2022-11-24T04:38:37;29.83;;;12.67;;
20810;SDS011;10566;52.928;10.522;2022-11-24T04:41:03;30.77;;;13.57;;
20810;SDS011;10566;52.928;10.522;2022-11-24T04:43:30;25.53;;;12.27;;
20810;SDS011;10566;52.928;10.522;2022-11-24T04:45:58;29.27;;;13.03;;
20810;SDS011;10566;52.928;10.522;2022-11-24T04:48:25;29.00;;;13.40;;
20810;SDS011;10566;52.928;10.522;2022-11-24T04:50:51;25.93;;;12.73;;
20810;SDS011;10566;52.928;10.522;2022-11-24T04:53:17;32.13;;;13.37;;
20810;SDS011;10566;52.928;10.522;2022-11-24T04:55:43;24.93;;;12.37;;
20810;SDS011;10566;52.928;10.522;2022-11-24T04:58:09;27.57;;;12.43;;
20810;SDS011;10566;52.928;10.522;2022-11-24T05:00:35;26.47;;;12.27;;
20810;SDS011;10566;52.928;10.522;2022-11-24T05:03:01;21.20;;;11.90;;
20810;SDS011;10566;52.928;10.522;2022-11-24T05:05:27;24.83;;;12.30;;
20810;SDS011;10566;52.928;10.522;2022-11-24T05:07:53;23.93;;;12.20;;
20810;SDS011;10566;52.928;10.522;2022-11-24T05:10:19;36.57;;;13.77;;
20810;SDS011;10566;52.928;10.522;2022-11-24T05:13:02;28.03;;;12.20;;
20810;SDS011;10566;52.928;10.522;2022-11-24T05:15:28;25.57;;;12.00;;
20810;SDS011;10566;52.928;10.522;2022-11-24T05:17:54;23.47;;;12.03;;
20810;SDS011;10566;52.928;10.522;2022-11-24T05:20:21;27.27;;;11.17;;
20810;SDS011;10566;52.928;10.522;2022-11-24T05:22:47;26.50;;;12.20;;
20810;SDS011;10566;52.928;10.522;2022-11-24T05:25:13;24.03;;;11.87;;
20810;SDS011;10566;52.928;10.522;2022-11-24T05:27:40;26.80;;;11.93;;
20810;SDS011;10566;52.928;10.522;2022-11-24T05:30:06;25.93;;;11.83;;
20810;SDS011;10566;52.928;10.522;2022-11-24T05:32:32;31.17;;;12.47;;
20810;SDS011;10566;52.928;10.522;2022-11-24T05:34:58;28.30;;;11.90;;
20810;SDS011;10566;52.928;10.522;2022-11-24T05:37:27;23.50;;;11.63;;
20810;SDS011;10566;52.928;10.522;2022-11-24T05:39:53;29.27;;;12.60;;
20810;SDS011;10566;52.928;10.522;2022-11-24T05:42:19;29.43;;;14.00;;
20810;SDS011;10566;52.928;10.522;2022-11-24T05:45:04;36.90;;;16.00;;
20810;SDS011;10566;52.928;10.522;2022-11-24T05:47:30;35.57;;;15.87;;
20810;SDS011;10566;52.928;10.522;2022-11-24T05:49:56;35.33;;;13.80;;
20810;SDS011;10566;52.928;10.522;2022-11-24T05:52:22;34.17;;;14.63;;
20810;SDS011;10566;52.928;10.522;2022-11-24T05:54:48;34.23;;;14.43;;
20810;SDS011;10566;52.928;10.522;2022-11-24T05:57:15;30.13;;;13.53;;
20810;SDS011;10566;52.928;10.522;2022-11-24T05:59:41;36.13;;;15.03;;
20810;SDS011;10566;52.928;10.522;2022-11-24T06:02:07;32.93;;;14.23;;
20810;SDS011;10566;52.928;10.522;2022-11-24T06:04:34;33.47;;;14.43;;
20810;SDS011;10566;52.928;10.522;2022-11-24T06:07:00;40.03;;;14.97;;
20810;SDS011;10566;52.928;10.522;2022-11-24T06:09:26;34.30;;;14.03;;
20810;SDS011;10566;52.928;10.522;2022-11-24T06:11:53;39.40;;;14.00;;
20810;SDS011;10566;52.928;10.522;2022-11-24T06:14:19;33.90;;;13.33;;
20810;SDS011;10566;52.928;10.522;2022-11-24T06:16:45;32.23;;;13.07;;
20810;SDS011;10566;52.928;10.522;2022-11-24T06:19:11;29.63;;;12.60;;
20810;SDS011;10566;52.928;10.522;2022-11-24T06:21:37;41.73;;;12.30;;
20810;SDS011;10566;52.928;10.522;2022-11-24T06:24:03;35.87;;;12.40;;
20810;SDS011;10566;52.928;10.522;2022-11-24T06:26:29;32.80;;;11.80;;
20810;SDS011;10566;52.928;10.522;2022-11-24T06:28:55;33.33;;;11.53;;
20810;SDS011;10566;52.928;10.522;2022-11-24T06:31:21;33.50;;;12.13;;
20810;SDS011;10566;52.928;10.522;2022-11-24T06:33:47;31.03;;;11.50;;
20810;SDS011;10566;52.928;10.522;2022-11-24T06:36:14;34.47;;;11.50;;
20810;SDS011;10566;52.928;10.522;2022-11-24T06:38:40;34.70;;;11.57;;
20810;SDS011;10566;52.928;10.522;2022-11-24T06:41:08;32.33;;;10.83;;
20810;SDS011;10566;52.928;10.522;2022-11-24T06:43:35;28.93;;;10.73;;
20810;SDS011;10566;52.928;10.522;2022-11-24T06:46:01;28.70;;;10.47;;
20810;SDS011;10566;52.928;10.522;2022-11-24T06:48:27;27.37;;;11.00;;
20810;SDS011;10566;52.928;10.522;2022-11-24T06:50:58;30.77;;;11.10;;
20810;SDS011;10566;52.928;10.522;2022-11-24T06:53:24;29.97;;;10.63;;
20810;SDS011;10566;52.928;10.522;2022-11-24T06:55:50;32.80;;;10.90;;
20810;SDS011;10566;52.928;10.522;2022-11-24T06:58:16;26.30;;;11.60;;
20810;SDS011;10566;52.928;10.522;2022-11-24T07:00:42;28.63;;;11.40;;
20810;SDS011;10566;52.928;10.522;2022-11-24T07:03:15;28.97;;;11.90;;
20810;SDS011;10566;52.928;10.522;2022-11-24T07:05:41;29.83;;;11.60;;
20810;SDS011;10566;52.928;10.522;2022-11-24T07:08:08;24.33;;;10.97;;
20810;SDS011;10566;52.928;10.522;2022-11-24T07:10:34;27.87;;;11.63;;
20810;SDS011;10566;52.928;10.522;2022-11-24T07:13:00;35.83;;;11.60;;
20810;SDS011;10566;52.928;10.522;2022-11-24T07:15:28;30.90;;;11.47;;
20810;SDS011;10566;52.928;10.522;2022-11-24T07:17:54;33.37;;;10.93;;
20810;SDS011;10566;52.928;10.522;2022-11-24T07:20:20;25.70;;;9.63;;
20810;SDS011;10566;52.928;10.522;2022-11-24T07:22:46;32.07;;;10.77;;
20810;SDS011;10566;52.928;10.522;2022-11-24T07:25:12;31.77;;;10.80;;
20810;SDS011;10566;52.928;10.522;2022-11-24T07:27:38;31.63;;;10.27;;
20810;SDS011;10566;52.928;10.522;2022-11-24T07:30:05;27.77;;;11.00;;
20810;SDS011;10566;52.928;10.522;2022-11-24T07:32:31;27.67;;;10.47;;
20810;SDS011;10566;52.928;10.522;2022-11-24T07:34:57;25.57;;;10.00;;
20810;SDS011;10566;52.928;10.522;2022-11-24T07:37:24;30.47;;;11.47;;
20810;SDS011;10566;52.928;10.522;2022-11-24T07:39:50;30.37;;;12.10;;
20810;SDS011;10566;52.928;10.522;2022-11-24T07:42:16;32.93;;;13.93;;
20810;SDS011;10566;52.928;10.522;2022-11-24T07:44:42;37.20;;;14.87;;
20810;SDS011;10566;52.928;10.522;2022-11-24T07:47:08;39.87;;;15.20;;
20810;SDS011;10566;52.928;10.522;2022-11-24T07:49:34;33.47;;;14.83;;
20810;SDS011;10566;52.928;10.522;2022-11-24T07:52:00;31.23;;;12.37;;
20810;SDS011;10566;52.928;10.522;2022-11-24T07:54:26;27.40;;;11.57;;
20810;SDS011;10566;52.928;10.522;2022-11-24T07:56:52;33.33;;;12.10;;
20810;SDS011;10566;52.928;10.522;2022-11-24T07:59:18;37.50;;;13.03;;
20810;SDS011;10566;52.928;10.522;2022-11-24T08:01:44;26.30;;;11.77;;
20810;SDS011;10566;52.928;10.522;2022-11-24T08:04:10;27.17;;;10.83;;
20810;SDS011;10566;52.928;10.522;2022-11-24T08:06:36;28.70;;;11.60;;
20810;SDS011;10566;52.928;10.522;2022-11-24T08:09:02;26.60;;;11.03;;
20810;SDS011;10566;52.928;10.522;2022-11-24T08:11:28;33.67;;;11.17;;
20810;SDS011;10566;52.928;10.522;2022-11-24T08:13:55;37.43;;;11.33;;
20810;SDS011;10566;52.928;10.522;2022-11-24T08:16:21;25.93;;;10.43;;
20810;SDS011;10566;52.928;10.522;2022-11-24T08:18:52;29.67;;;10.87;;
20810;SDS011;10566;52.928;10.522;2022-11-24T08:21:18;29.10;;;10.03;;
20810;SDS011;10566;52.928;10.522;2022-11-24T08:23:44;29.63;;;9.87;;
20810;SDS011;10566;52.928;10.522;2022-11-24T08:26:12;33.00;;;11.30;;
20810;SDS011;10566;52.928;10.522;2022-11-24T08:28:40;27.40;;;11.80;;
20810;SDS011;10566;52.928;10.522;2022-11-24T08:31:07;41.83;;;19.33;;
20810;SDS011;10566;52.928;10.522;2022-11-24T08:33:33;31.60;;;10.60;;
20810;SDS011;10566;52.928;10.522;2022-11-24T08:36:07;28.00;;;10.80;;
20810;SDS011;10566;52.928;10.522;2022-11-24T08:38:33;31.87;;;10.67;;
20810;SDS011;10566;52.928;10.522;2022-11-24T08:41:03;24.90;;;9.57;;
20810;SDS011;10566;52.928;10.522;2022-11-24T08:43:30;24.77;;;9.27;;
20810;SDS011;10566;52.928;10.522;2022-11-24T08:46:03;30.50;;;9.50;;
20810;SDS011;10566;52.928;10.522;2022-11-24T08:48:30;25.67;;;9.63;;
20810;SDS011;10566;52.928;10.522;2022-11-24T08:50:56;27.50;;;9.53;;
20810;SDS011;10566;52.928;10.522;2022-11-24T08:53:23;30.10;;;9.30;;
20810;SDS011;10566;52.928;10.522;2022-11-24T08:55:50;25.90;;;8.27;;
20810;SDS011;10566;52.928;10.522;2022-11-24T08:58:16;21.63;;;9.27;;
20810;SDS011;10566;52.928;10.522;2022-11-24T09:00:42;25.87;;;9.23;;
20810;SDS011;10566;52.928;10.522;2022-11-24T09:03:09;21.47;;;8.87;;
20810;SDS011;10566;52.928;10.522;2022-11-24T09:05:36;28.07;;;8.83;;
20810;SDS011;10566;52.928;10.522;2022-11-24T09:08:02;23.87;;;8.43;;
20810;SDS011;10566;52.928;10.522;2022-11-24T09:10:28;22.47;;;8.57;;
20810;SDS011;10566;52.928;10.522;2022-11-24T09:12:54;30.97;;;9.57;;
20810;SDS011;10566;52.928;10.522;2022-11-24T09:15:20;32.33;;;10.00;;
20810;SDS011;10566;52.928;10.522;2022-11-24T09:17:46;31.87;;;10.50;;
20810;SDS011;10566;52.928;10.522;2022-11-24T09:20:13;27.73;;;9.40;;
20810;SDS011;10566;52.928;10.522;2022-11-24T09:22:38;25.57;;;8.87;;
20810;SDS011;10566;52.928;10.522;2022-11-24T09:25:06;27.53;;;8.60;;
20810;SDS011;10566;52.928;10.522;2022-11-24T09:27:33;39.23;;;15.77;;
20810;SDS011;10566;52.928;10.522;2022-11-24T09:29:59;37.73;;;11.53;;
20810;SDS011;10566;52.928;10.522;2022-11-24T09:32:25;35.57;;;8.87;;
20810;SDS011;10566;52.928;10.522;2022-11-24T09:34:51;27.30;;;10.37;;
20810;SDS011;10566;52.928;10.522;2022-11-24T09:37:17;26.47;;;11.53;;
20810;SDS011;10566;52.928;10.522;2022-11-24T09:39:43;24.80;;;11.50;;
20810;SDS011;10566;52.928;10.522;2022-11-24T09:42:22;28.03;;;9.63;;
20810;SDS011;10566;52.928;10.522;2022-11-24T09:49:57;28.73;;;9.70;;
20810;SDS011;10566;52.928;10.522;2022-11-24T09:52:36;22.93;;;10.27;;
20810;SDS011;10566;52.928;10.522;2022-11-24T09:55:03;27.47;;;8.03;;
20810;SDS011;10566;52.928;10.522;2022-11-24T09:57:30;24.60;;;7.43;;
20810;SDS011;10566;52.928;10.522;2022-11-24T10:00:00;27.43;;;8.03;;
20810;SDS011;10566;52.928;10.522;2022-11-24T10:02:28;27.40;;;7.20;;
20810;SDS011;10566;52.928;10.522;2022-11-24T10:04:54;76.37;;;29.07;;
20810;SDS011;10566;52.928;10.522;2022-11-24T10:07:26;124.70;;;44.73;;
20810;SDS011;10566;52.928;10.522;2022-11-24T10:10:15;42.47;;;15.20;;
20810;SDS011;10566;52.928;10.522;2022-11-24T10:12:46;23.67;;;7.33;;
20810;SDS011;10566;52.928;10.522;2022-11-24T10:15:22;26.43;;;6.43;;
20810;SDS011;10566;52.928;10.522;2022-11-24T10:18:05;26.33;;;6.43;;
20810;SDS011;10566;52.928;10.522;2022-11-24T10:25:52;28.07;;;6.37;;
20810;SDS011;10566;52.928;10.522;2022-11-24T10:28:21;27.27;;;5.73;;
20810;SDS011;10566;52.928;10.522;2022-11-24T10:30:50;23.27;;;5.60;;
20810;SDS011;10566;52.928;10.522;2022-11-24T10:33:17;19.17;;;5.30;;
20810;SDS011;10566;52.928;10.522;2022-11-24T10:35:45;20.10;;;4.57;;
20810;SDS011;10566;52.928;10.522;2022-11-24T10:38:18;18.40;;;5.17;;
20810;SDS011;10566;52.928;10.522;2022-11-24T10:40:51;19.53;;;5.00;;
20810;SDS011;10566;52.928;10.522;2022-11-24T10:43:18;20.93;;;4.67;;
20810;SDS011;10566;52.928;10.522;2022-11-24T10:45:44;19.30;;;4.63;;
20810;SDS011;10566;52.928;10.522;2022-11-24T10:48:26;15.70;;;4.40;;
20810;SDS011;10566;52.928;10.522;2022-11-24T10:50:55;20.20;;;4.70;;
20810;SDS011;10566;52.928;10.522;2022-11-24T10:53:25;21.53;;;5.13;;
20810;SDS011;10566;52.928;10.522;2022-11-24T10:58:25;19.63;;;4.63;;
20810;SDS011;10566;52.928;10.522;2022-11-24T11:00:52;26.43;;;5.37;;
20810;SDS011;10566;52.928;10.522;2022-11-24T11:03:20;20.43;;;4.80;;
20810;SDS011;10566;52.928;10.522;2022-11-24T11:05:47;18.47;;;4.33;;
20810;SDS011;10566;52.928;10.522;2022-11-24T11:08:19;21.20;;;4.37;;
20810;SDS011;10566;52.928;10.522;2022-11-24T11:10:46;16.50;;;3.77;;
20810;SDS011;10566;52.928;10.522;2022-11-24T11:13:22;25.53;;;4.67;;
20810;SDS011;10566;52.928;10.522;2022-11-24T11:15:48;21.23;;;4.70;;
20810;SDS011;10566;52.928;10.522;2022-11-24T11:18:15;20.97;;;4.33;;
20810;SDS011;10566;52.928;10.522;2022-11-24T11:20:48;16.03;;;4.27;;
20810;SDS011;10566;52.928;10.522;2022-11-24T11:23:18;24.37;;;4.53;;
20810;SDS011;10566;52.928;10.522;2022-11-24T11:25:45;25.43;;;4.70;;
20810;SDS011;10566;52.928;10.522;2022-11-24T11:28:22;18.43;;;4.10;;
20810;SDS011;10566;52.928;10.522;2022-11-24T11:30:57;19.20;;;5.10;;
20810;SDS011;10566;52.928;10.522;2022-11-24T11:33:25;24.27;;;4.60;;
20810;SDS011;10566;52.928;10.522;2022-11-24T11:35:52;20.03;;;4.53;;
20810;SDS011;10566;52.928;10.522;2022-11-24T11:38:19;17.93;;;4.07;;
20810;SDS011;10566;52.928;10.522;2022-11-24T11:40:45;21.10;;;4.57;;
20810;SDS011;10566;52.928;10.522;2022-11-24T11:43:35;18.50;;;3.90;;
20810;SDS011;10566;52.928;10.522;2022-11-24T11:46:10;16.30;;;4.30;;
20810;SDS011;10566;52.928;10.522;2022-11-24T11:48:37;24.50;;;4.43;;
20810;SDS011;10566;52.928;10.522;2022-11-24T11:51:14;24.37;;;4.63;;
20810;SDS011;10566;52.928;10.522;2022-11-24T11:56:24;16.17;;;4.20;;
20810;SDS011;10566;52.928;10.522;2022-11-24T12:01:27;39.07;;;13.30;;
20810;SDS011;10566;52.928;10.522;2022-11-24T12:03:56;42.70;;;13.93;;
20810;SDS011;10566;52.928;10.522;2022-11-24T12:14:06;19.97;;;4.80;;
20810;SDS011;10566;52.928;10.522;2022-11-24T12:16:43;19.43;;;4.47;;
20810;SDS011;10566;52.928;10.522;2022-11-24T12:19:14;17.63;;;4.33;;
20810;SDS011;10566;52.928;10.522;2022-11-24T12:27:04;21.83;;;4.03;;
20810;SDS011;10566;52.928;10.522;2022-11-24T12:45:21;15.30;;;4.37;;
20810;SDS011;10566;52.928;10.522;2022-11-24T12:50:36;16.93;;;5.17;;
20810;SDS011;10566;52.928;10.522;2022-11-24T12:53:04;22.83;;;4.30;;
20810;SDS011;10566;52.928;10.522;2022-11-24T12:55:31;25.17;;;4.40;;
20810;SDS011;10566;52.928;10.522;2022-11-24T13:05:28;18.53;;;5.07;;
20810;SDS011;10566;52.928;10.522;2022-11-24T13:07:57;19.37;;;5.40;;
20810;SDS011;10566;52.928;10.522;2022-11-24T13:15:22;26.80;;;5.70;;
20810;SDS011;10566;52.928;10.522;2022-11-24T13:17:48;16.70;;;4.43;;
20810;SDS011;10566;52.928;10.522;2022-11-24T13:20:15;21.60;;;4.90;;
20810;SDS011;10566;52.928;10.522;2022-11-24T13:22:45;21.67;;;4.93;;
20810;SDS011;10566;52.928;10.522;2022-11-24T13:25:21;24.00;;;5.53;;
20810;SDS011;10566;52.928;10.522;2022-11-24T13:27:49;17.13;;;5.13;;
20810;SDS011;10566;52.928;10.522;2022-11-24T13:35:36;19.03;;;4.63;;
20810;SDS011;10566;52.928;10.522;2022-11-24T13:38:03;20.00;;;5.00;;
20810;SDS011;10566;52.928;10.522;2022-11-24T13:40:48;27.87;;;6.97;;
20810;SDS011;10566;52.928;10.522;2022-11-24T13:53:21;26.37;;;8.17;;
20810;SDS011;10566;52.928;10.522;2022-11-24T13:55:55;25.37;;;8.60;;
20810;SDS011;10566;52.928;10.522;2022-11-24T14:03:34;19.93;;;5.33;;
20810;SDS011;10566;52.928;10.522;2022-11-24T14:06:01;15.83;;;4.63;;
20810;SDS011;10566;52.928;10.522;2022-11-24T14:08:28;25.30;;;5.40;;
20810;SDS011;10566;52.928;10.522;2022-11-24T14:10:55;24.27;;;5.90;;
20810;SDS011;10566;52.928;10.522;2022-11-24T14:18:47;22.17;;;5.87;;
20810;SDS011;10566;52.928;10.522;2022-11-24T14:21:16;20.80;;;5.70;;
20810;SDS011;10566;52.928;10.522;2022-11-24T14:23:46;20.17;;;6.63;;
20810;SDS011;10566;52.928;10.522;2022-11-24T14:26:18;22.73;;;8.37;;
20810;SDS011;10566;52.928;10.522;2022-11-24T14:28:45;27.73;;;10.97;;
20810;SDS011;10566;52.928;10.522;2022-11-24T14:31:22;42.20;;;16.67;;
20810;SDS011;10566;52.928;10.522;2022-11-24T14:33:48;45.97;;;23.40;;
20810;SDS011;10566;52.928;10.522;2022-11-24T14:36:14;37.63;;;17.53;;
20810;SDS011;10566;52.928;10.522;2022-11-24T14:38:41;32.87;;;13.53;;
20810;SDS011;10566;52.928;10.522;2022-11-24T14:41:41;20.73;;;9.00;;
20810;SDS011;10566;52.928;10.522;2022-11-24T14:44:16;24.93;;;7.10;;
20810;SDS011;10566;52.928;10.522;2022-11-24T14:46:44;22.50;;;6.47;;
20810;SDS011;10566;52.928;10.522;2022-11-24T14:49:15;23.23;;;6.93;;
20810;SDS011;10566;52.928;10.522;2022-11-24T14:51:41;25.93;;;7.40;;
20810;SDS011;10566;52.928;10.522;2022-11-24T14:54:16;29.00;;;7.60;;
20810;SDS011;10566;52.928;10.522;2022-11-24T14:56:54;25.57;;;9.07;;
20810;SDS011;10566;52.928;10.522;2022-11-24T14:59:22;23.00;;;11.97;;
20810;SDS011;10566;52.928;10.522;2022-11-24T15:01:48;25.10;;;9.50;;
20810;SDS011;10566;52.928;10.522;2022-11-24T15:06:44;25.77;;;11.77;;
20810;SDS011;10566;52.928;10.522;2022-11-24T15:09:18;24.77;;;11.47;;
20810;SDS011;10566;52.928;10.522;2022-11-24T15:11:44;35.83;;;11.87;;
20810;SDS011;10566;52.928;10.522;2022-11-24T15:14:24;28.43;;;13.03;;
20810;SDS011;10566;52.928;10.522;2022-11-24T15:16:53;29.73;;;10.90;;
20810;SDS011;10566;52.928;10.522;2022-11-24T15:19:19;30.00;;;12.27;;
20810;SDS011;10566;52.928;10.522;2022-11-24T15:21:49;25.63;;;9.13;;
20810;SDS011;10566;52.928;10.522;2022-11-24T15:24:16;26.27;;;11.50;;
20810;SDS011;10566;52.928;10.522;2022-11-24T15:26:42;30.43;;;12.60;;
20810;SDS011;10566;52.928;10.522;2022-11-24T15:29:09;28.70;;;9.30;;
20810;SDS011;10566;52.928;10.522;2022-11-24T15:31:35;27.73;;;9.53;;
20810;SDS011;10566;52.928;10.522;2022-11-24T15:34:02;24.67;;;7.40;;
20810;SDS011;10566;52.928;10.522;2022-11-24T15:36:28;25.87;;;11.10;;
20810;SDS011;10566;52.928;10.522;2022-11-24T15:38:54;26.80;;;10.53;;
20810;SDS011;10566;52.928;10.522;2022-11-24T15:41:20;24.83;;;9.43;;
20810;SDS011;10566;52.928;10.522;2022-11-24T15:43:47;22.27;;;9.40;;
20810;SDS011;10566;52.928;10.522;2022-11-24T15:46:13;26.00;;;11.07;;
20810;SDS011;10566;52.928;10.522;2022-11-24T15:48:39;15.67;;;5.83;;
20810;SDS011;10566;52.928;10.522;2022-11-24T15:51:06;17.83;;;7.63;;
20810;SDS011;10566;52.928;10.522;2022-11-24T15:53:43;38.13;;;15.57;;
20810;SDS011;10566;52.928;10.522;2022-11-24T15:56:11;31.70;;;13.30;;
20810;SDS011;10566;52.928;10.522;2022-11-24T15:58:38;17.20;;;7.67;;